createdAt,value
2018-01-06T00:02:36.729Z,51.00
2018-01-06T00:17:36.717Z,46.33
2018-01-06T00:32:34.689Z,48.60
2018-01-06T00:47:35.383Z,55.33
2018-01-06T01:02:37.054Z,49.57
2018-01-06T01:17:35.005Z,45.30
2018-01-06T01:32:34.950Z,46.10
2018-01-06T01:47:37.374Z,45.83
2018-01-06T02:02:37.256Z,40.70
2018-01-06T02:17:35.213Z,45.93
2018-01-06T02:32:35.118Z,49.90
2018-01-06T02:47:40.558Z,46.50
2018-01-06T03:02:36.886Z,44.80
2018-01-06T03:17:34.429Z,50.07
2018-01-06T03:32:35.338Z,44.97
2018-01-06T03:47:37.189Z,40.60
2018-01-06T04:02:34.759Z,40.80
2018-01-06T04:17:34.619Z,56.60
2018-01-06T04:32:34.617Z,90.03
2018-01-06T04:47:35.054Z,86.50
2018-01-06T05:02:34.937Z,79.80
2018-01-06T05:17:35.958Z,81.93
2018-01-06T05:32:34.860Z,86.80
2018-01-06T05:47:37.275Z,86.03
2018-01-06T06:02:34.642Z,71.47
2018-01-06T06:17:35.101Z,54.67
2018-01-06T06:32:34.962Z,51.20
2018-01-06T06:47:34.544Z,59.43
2018-01-06T07:02:33.822Z,66.03
2018-01-06T07:17:35.303Z,80.60
2018-01-06T07:32:35.279Z,94.70
2018-01-06T07:47:34.746Z,90.73
2018-01-06T08:02:34.753Z,73.93
2018-01-06T08:17:34.309Z,84.10
2018-01-06T08:32:34.327Z,90.93
2018-01-06T08:47:34.788Z,75.67
2018-01-06T09:02:34.832Z,84.60
2018-01-06T09:17:34.617Z,85.40
2018-01-06T09:32:34.558Z,84.77
2018-01-06T09:47:34.933Z,81.87
2018-01-06T10:02:35.149Z,77.30
2018-01-06T10:17:35.081Z,76.07
2018-01-06T10:32:35.022Z,77.50
2018-01-06T10:47:34.279Z,79.37
2018-01-06T11:02:34.683Z,72.80
2018-01-06T11:17:35.314Z,69.70
2018-01-06T11:32:36.979Z,54.97
2018-01-06T11:47:34.581Z,54.07
2018-01-06T12:02:35.625Z,54.50
2018-01-06T12:17:37.544Z,53.17
2018-01-06T12:32:33.894Z,50.50
2018-01-06T12:47:34.959Z,51.20
2018-01-06T13:02:34.659Z,51.93
2018-01-06T13:17:36.816Z,46.63
2018-01-06T13:32:37.673Z,45.47
2018-01-06T13:47:38.184Z,39.50
2018-01-06T14:02:36.872Z,38.70
2018-01-06T14:17:34.924Z,39.87
2018-01-06T14:32:34.869Z,40.10
2018-01-06T14:47:37.399Z,41.90
2018-01-06T15:02:35.059Z,53.03
2018-01-06T15:17:35.075Z,41.77
2018-01-06T15:32:37.952Z,57.07
2018-01-06T15:47:34.431Z,51.50
2018-01-06T16:02:35.330Z,54.80
2018-01-06T16:17:34.338Z,48.10
2018-01-06T16:32:35.689Z,55.17
2018-01-06T16:47:34.551Z,45.10
2018-01-06T17:02:34.692Z,59.77
2018-01-06T17:17:36.469Z,52.23
2018-01-06T17:32:33.908Z,54.40
2018-01-06T17:47:34.745Z,47.50
2018-01-06T18:02:34.205Z,51.07
2018-01-06T18:17:37.688Z,45.00
2018-01-06T18:32:34.557Z,49.93
2018-01-06T18:47:34.999Z,52.07
2018-01-06T19:02:34.542Z,53.10
2018-01-06T19:17:36.542Z,37.70
2018-01-06T19:32:34.162Z,32.80
2018-01-06T19:47:35.606Z,55.30
2018-01-06T20:02:34.965Z,47.20
2018-01-06T20:17:35.471Z,40.50
2018-01-06T20:32:35.132Z,45.30
2018-01-06T20:47:33.848Z,36.93
2018-01-06T21:02:33.921Z,27.57
2018-01-06T21:17:33.844Z,31.43
2018-01-06T21:32:33.865Z,37.57
2018-01-06T21:47:34.208Z,31.90
2018-01-06T22:02:34.144Z,34.30
2018-01-06T22:17:34.199Z,36.53
2018-01-06T22:32:34.586Z,34.93
2018-01-06T22:47:35.214Z,43.13
2018-01-06T23:02:34.372Z,49.17
2018-01-06T23:17:35.021Z,43.53
2018-01-06T23:32:35.044Z,40.03
2018-01-06T23:47:34.735Z,42.43
